Time;durP1;ratioP1;P1;durP2;ratioP2;P2;SDS_P1;SDS_P2;PMS_P1;PMS_P2;Temp;Humidity;BMP_temperature;BMP_pressure;BME280_temperature;BME280_humidity;BME280_pressure;Samples;Min_cycle;Max_cycle;Signal;HPM_P1;HPM_P2
2020/12/08 00:00:23;;;;;;;72.97;28.27;;;;;;;0.34;100.00;100124.81;4792020;29;20497;-86
2020/12/08 00:02:55;;;;;;;75.43;28.43;;;;;;;0.36;100.00;100124.75;4771865;29;20058;-86
2020/12/08 00:05:36;;;;;;;79.18;26.90;;;;;;;0.28;99.54;100130.47;4748796;29;20493;-87
2020/12/08 00:08:07;;;;;;;61.92;25.40;;;;;;;0.31;99.61;100129.44;4754730;29;20791;-87
2020/12/08 00:10:36;;;;;;;71.32;27.20;;;;;;;0.28;99.60;100127.84;4777387;29;20070;-86
2020/12/08 00:13:10;;;;;;;66.10;26.88;;;;;;;0.29;99.22;100131.31;4767481;29;20875;-86
2020/12/08 00:15:38;;;;;;;59.10;25.80;;;;;;;0.27;99.50;100127.94;4754650;29;20101;-86
2020/12/08 00:18:04;;;;;;;64.22;26.73;;;;;;;0.19;99.57;100131.00;4765092;29;20044;-86
2020/12/08 00:20:42;;;;;;;70.28;26.90;;;;;;;0.12;99.37;100129.66;4791304;29;20523;-86
2020/12/08 00:23:19;;;;;;;63.97;24.63;;;;;;;0.10;99.46;100131.53;4779409;29;20051;-86
2020/12/08 00:25:52;;;;;;;73.22;25.40;;;;;;;0.07;99.43;100124.59;4758391;29;20096;-86
2020/12/08 00:28:24;;;;;;;54.55;24.25;;;;;;;0.13;99.43;100131.34;4770688;29;20053;-86
2020/12/08 00:30:55;;;;;;;61.53;23.65;;;;;;;0.08;99.25;100136.06;4776445;29;20103;-86
2020/12/08 00:33:23;;;;;;;49.33;22.23;;;;;;;0.10;99.30;100135.00;4746192;29;20051;-87
2020/12/08 00:35:58;;;;;;;56.10;22.92;;;;;;;0.15;99.42;100134.78;4792517;29;20055;-87
2020/12/08 00:38:27;;;;;;;50.03;22.98;;;;;;;0.12;99.11;100134.97;4762631;29;20052;-87
2020/12/08 00:40:53;;;;;;;54.97;24.02;;;;;;;0.07;98.78;100131.69;4767553;29;20046;-87
2020/12/08 00:43:19;;;;;;;56.47;24.23;;;;;;;0.03;99.43;100138.09;4779149;29;20055;-87
2020/12/08 00:45:47;;;;;;;60.42;23.65;;;;;;;0.06;99.24;100141.44;4801589;29;20092;-86
2020/12/08 00:48:15;;;;;;;63.45;24.48;;;;;;;0.11;99.53;100141.19;4764205;29;20074;-86
2020/12/08 00:50:49;;;;;;;61.63;24.23;;;;;;;0.18;99.60;100139.88;4772662;29;20078;-86
2020/12/08 00:53:16;;;;;;;60.65;25.90;;;;;;;0.30;99.72;100146.28;4767015;29;20047;-86
2020/12/08 00:55:51;;;;;;;53.17;23.60;;;;;;;0.42;99.06;100144.72;4777474;29;20047;-86
2020/12/08 00:58:32;;;;;;;63.35;24.60;;;;;;;0.36;99.26;100145.06;4754705;29;20047;-86
2020/12/08 01:01:15;;;;;;;64.57;26.45;;;;;;;0.38;99.62;100140.53;4774262;29;20071;-86
2020/12/08 01:03:40;;;;;;;61.58;25.25;;;;;;;0.39;99.44;100139.59;4726697;30;20090;-86
2020/12/08 01:06:21;;;;;;;60.85;25.58;;;;;;;0.45;99.78;100144.53;4751509;29;20181;-86
2020/12/08 01:08:52;;;;;;;62.13;26.63;;;;;;;0.46;99.68;100143.59;4731468;30;20120;-88
2020/12/08 01:11:27;;;;;;;61.17;25.90;;;;;;;0.60;99.73;100161.31;4732789;30;20048;-86
2020/12/08 01:13:57;;;;;;;68.68;27.08;;;;;;;0.61;99.81;100157.75;4714010;30;20047;-86
2020/12/08 01:16:26;;;;;;;64.50;25.85;;;;;;;0.65;99.73;100154.81;4715365;30;20055;-86
2020/12/08 01:18:51;;;;;;;71.22;27.05;;;;;;;0.74;99.68;100153.41;4724567;30;20051;-86
2020/12/08 01:21:27;;;;;;;69.28;26.77;;;;;;;0.79;100.00;100161.94;4726502;30;20049;-87
2020/12/08 01:23:56;;;;;;;73.35;27.70;;;;;;;0.73;99.59;100172.06;4713244;30;20059;-87
2020/12/08 01:26:23;;;;;;;66.55;26.70;;;;;;;0.80;99.48;100168.09;4717881;30;20048;-86
2020/12/08 01:28:53;;;;;;;64.43;26.20;;;;;;;0.81;99.88;100159.19;4721517;30;20533;-86
2020/12/08 01:31:21;;;;;;;58.83;26.25;;;;;;;0.87;99.85;100159.69;4719574;30;20045;-86
2020/12/08 01:33:59;;;;;;;62.00;25.85;;;;;;;0.92;99.71;100164.72;4720038;30;20040;-86
2020/12/08 01:36:27;;;;;;;62.67;25.70;;;;;;;1.01;99.63;100158.84;4715563;30;20498;-87
2020/12/08 01:39:25;;;;;;;55.07;25.03;;;;;;;1.10;100.00;100162.75;4704851;30;20056;-87
2020/12/08 01:41:59;;;;;;;54.20;23.85;;;;;;;1.02;99.61;100152.63;4780159;29;20284;-87
2020/12/08 01:44:32;;;;;;;50.72;21.95;;;;;;;1.01;99.75;100155.38;4767586;29;21093;-86
2020/12/08 01:47:25;;;;;;;;;;;;;;;;;;;;;
2020/12/08 01:49:54;;;;;;;43.38;20.80;;;;;;;0.96;99.92;100150.34;4776459;29;20362;-87
2020/12/08 01:52:22;;;;;;;48.15;21.05;;;;;;;0.97;99.62;100152.06;4761168;29;20070;-87
2020/12/08 01:55:03;;;;;;;50.13;21.15;;;;;;;0.76;99.36;100151.53;4779615;29;20063;-87
2020/12/08 01:57:35;;;;;;;46.20;21.73;;;;;;;0.77;99.42;100144.44;4752955;29;20052;-87
2020/12/08 02:00:04;;;;;;;59.47;22.60;;;;;;;0.66;99.54;100145.94;4765811;29;20078;-87
2020/12/08 02:02:32;;;;;;;53.10;22.27;;;;;;;0.65;99.78;100149.53;4779532;29;20055;-86
2020/12/08 02:05:15;;;;;;;56.85;22.77;;;;;;;0.72;99.84;100154.44;4753519;29;20051;-87
2020/12/08 02:07:59;;;;;;;45.63;22.70;;;;;;;0.75;99.75;100146.31;4762521;29;20039;-87
2020/12/08 02:10:33;;;;;;;48.25;20.98;;;;;;;0.76;99.90;100145.38;4760671;29;20047;-87
2020/12/08 02:13:05;;;;;;;48.05;20.98;;;;;;;0.75;99.57;100154.25;4756439;30;20062;-86
2020/12/08 02:15:34;;;;;;;44.05;20.48;;;;;;;0.70;99.55;100159.84;4738625;30;20052;-87
2020/12/08 02:17:59;;;;;;;53.77;21.50;;;;;;;0.63;99.18;100156.72;4770745;29;20055;-86
2020/12/08 02:20:26;;;;;;;52.60;22.45;;;;;;;0.75;99.95;100152.50;4764630;30;20284;-86
2020/12/08 02:23:12;;;;;;;44.22;21.23;;;;;;;0.58;99.50;100158.75;4794573;29;20554;-87
2020/12/08 02:25:55;;;;;;;48.75;21.58;;;;;;;0.63;99.85;100166.44;4757108;29;20134;-87
2020/12/08 02:28:23;;;;;;;47.85;20.45;;;;;;;0.69;99.46;100151.06;4772417;29;20078;-87
2020/12/08 02:30:49;;;;;;;44.13;21.08;;;;;;;0.68;99.84;100148.50;4774911;29;20052;-87
2020/12/08 02:33:23;;;;;;;49.83;22.52;;;;;;;0.68;99.53;100145.84;4765693;29;20054;-87
2020/12/08 02:35:49;;;;;;;49.90;23.10;;;;;;;0.67;99.16;100144.97;4767635;30;20140;-87
2020/12/08 02:38:35;;;;;;;55.92;23.63;;;;;;;0.67;99.18;100142.31;4753554;29;20063;-88
2020/12/08 02:41:06;;;;;;;52.42;22.73;;;;;;;0.73;99.52;100150.88;4747270;29;20548;-87
2020/12/08 02:43:35;;;;;;;53.33;23.13;;;;;;;0.77;99.62;100137.34;4787060;29;20051;-87
2020/12/08 02:46:19;;;;;;;57.80;25.07;;;;;;;0.84;99.80;100149.28;4761175;29;20472;-87
2020/12/08 02:48:51;;;;;;;60.70;25.02;;;;;;;0.85;99.64;100150.13;4766979;30;20051;-87
2020/12/08 02:51:28;;;;;;;52.38;24.52;;;;;;;0.93;99.39;100163.78;4758157;30;20532;-87
2020/12/08 02:54:07;;;;;;;57.55;25.10;;;;;;;0.89;100.00;100164.91;4770920;29;20055;-87
2020/12/08 02:56:35;;;;;;;61.22;26.13;;;;;;;0.89;99.80;100169.34;4777662;29;20473;-87
2020/12/08 02:59:18;;;;;;;60.70;27.23;;;;;;;1.01;99.41;100166.81;4756546;29;20542;-87
2020/12/08 03:04:34;;;;;;;59.00;25.70;;;;;;;1.00;99.36;100174.84;4771524;29;20134;-86
2020/12/08 03:07:08;;;;;;;58.97;26.77;;;;;;;1.03;99.60;100175.53;4790409;24;20145;-87
2020/12/08 03:09:38;;;;;;;58.00;24.50;;;;;;;1.05;99.26;100176.28;4760147;30;20059;-86
2020/12/08 03:12:13;;;;;;;58.53;26.55;;;;;;;1.10;99.49;100169.84;4772629;29;20048;-87
2020/12/08 03:14:46;;;;;;;60.55;25.42;;;;;;;1.09;99.71;100173.44;4736591;30;20108;-87
2020/12/08 03:17:14;;;;;;;62.85;25.02;;;;;;;1.13;99.17;100167.03;4746362;29;20463;-87
2020/12/08 03:19:41;;;;;;;52.42;24.83;;;;;;;1.13;99.31;100167.84;4747793;29;20051;-87
2020/12/08 03:22:35;;;;;;;61.10;27.00;;;;;;;1.11;99.41;100166.28;4747267;30;20036;-87
2020/12/08 03:25:09;;;;;;;54.28;25.35;;;;;;;1.23;99.07;100178.78;4746055;30;20055;-87
2020/12/08 03:27:40;;;;;;;53.40;25.13;;;;;;;1.18;99.37;100178.22;4747595;29;20057;-87
2020/12/08 03:33:04;;;;;;;57.65;25.15;;;;;;;1.20;99.63;100171.00;4765543;29;20053;-87
2020/12/08 03:35:32;;;;;;;49.92;23.55;;;;;;;1.07;99.10;100172.69;4766326;29;20058;-87
2020/12/08 03:38:09;;;;;;;53.20;25.27;;;;;;;1.04;99.00;100171.06;4748832;30;20054;-87
2020/12/08 03:40:46;;;;;;;53.40;23.67;;;;;;;0.88;99.39;100171.13;4740394;30;20059;-88
2020/12/08 03:43:22;;;;;;;48.17;22.55;;;;;;;0.82;99.46;100174.16;4777093;29;20095;-88
2020/12/08 03:46:15;;;;;;;;;;;;;;;;;;;;;
2020/12/08 03:49:07;;;;;;;46.17;21.95;;;;;;;0.56;99.18;100173.91;4765113;29;20515;-88
2020/12/08 03:52:03;;;;;;;55.60;23.83;;;;;;;0.49;99.19;100175.19;4747581;29;20069;-87
2020/12/08 03:54:38;;;;;;;51.47;23.67;;;;;;;0.47;99.35;100177.06;4748253;29;20043;-88
2020/12/08 03:57:11;;;;;;;51.95;21.75;;;;;;;0.45;99.25;100178.94;4749825;29;20510;-87
2020/12/08 03:59:43;;;;;;;49.67;22.63;;;;;;;0.39;99.15;100182.78;4735680;30;20433;-87
2020/12/08 04:02:15;;;;;;;51.92;21.67;;;;;;;0.31;99.15;100183.25;4754118;30;20062;-87
2020/12/08 04:04:52;;;;;;;47.20;21.25;;;;;;;0.17;99.18;100185.81;4743167;30;20532;-87
2020/12/08 04:07:27;;;;;;;44.55;20.80;;;;;;;0.07;98.93;100184.63;4748810;30;20102;-88
2020/12/08 04:09:59;;;;;;;46.97;21.83;;;;;;;0.04;99.20;100184.78;4778643;29;20052;-87
2020/12/08 04:12:30;;;;;;;49.03;21.45;;;;;;;-0.01;99.18;100190.34;4741193;30;20055;-87
2020/12/08 04:15:07;;;;;;;51.50;22.05;;;;;;;-0.01;98.99;100195.63;4755760;30;20071;-87
2020/12/08 04:17:46;;;;;;;50.22;23.80;;;;;;;-0.01;99.10;100191.19;4710564;30;20170;-88
2020/12/08 04:20:30;;;;;;;48.05;21.55;;;;;;;-0.05;99.30;100202.88;4756967;29;20051;-87
2020/12/08 04:22:55;;;;;;;46.22;23.17;;;;;;;-0.02;99.48;100199.22;4743363;30;20127;-87
2020/12/08 04:25:21;;;;;;;52.10;22.60;;;;;;;-0.05;99.52;100202.88;4744844;30;20733;-88
2020/12/08 04:27:50;;;;;;;51.60;22.08;;;;;;;0.00;99.48;100205.28;4763688;30;20503;-87
2020/12/08 04:30:21;;;;;;;50.40;22.93;;;;;;;0.03;99.39;100210.41;4746019;30;20051;-87
2020/12/08 04:33:01;;;;;;;;;;;;;;;;;;;;;
2020/12/08 04:35:30;;;;;;;55.55;23.65;;;;;;;0.14;99.85;100212.44;4755607;30;20044;-87
2020/12/08 04:37:59;;;;;;;51.45;22.73;;;;;;;0.18;99.90;100216.63;4754147;30;20051;-87
2020/12/08 04:40:36;;;;;;;54.10;23.10;;;;;;;0.21;99.82;100208.53;4754906;29;20494;-87
2020/12/08 04:43:14;;;;;;;60.50;24.88;;;;;;;0.26;99.79;100211.75;4740330;30;20311;-86
2020/12/08 04:45:43;;;;;;;54.70;23.92;;;;;;;0.30;99.89;100210.66;4749976;30;20126;-86
2020/12/08 04:48:14;;;;;;;53.45;24.13;;;;;;;0.27;99.82;100215.28;4732591;29;20047;-86
2020/12/08 04:50:43;;;;;;;54.83;22.85;;;;;;;0.25;99.74;100222.44;4756938;30;20040;-86
2020/12/08 04:53:11;;;;;;;;;;;;;;;0.25;99.99;100225.94;4753553;30;20101;-87
2020/12/08 04:55:50;;;;;;;52.35;21.85;;;;;;;0.20;99.31;100222.69;4738371;30;20277;-86
2020/12/08 04:58:43;;;;;;;52.92;21.85;;;;;;;0.15;99.44;100224.75;4731560;30;20403;-87
2020/12/08 05:01:41;;;;;;;53.53;22.65;;;;;;;0.15;99.51;100219.47;4753943;30;20186;-86
2020/12/08 05:04:07;;;;;;;54.60;23.02;;;;;;;0.14;99.84;100220.38;4753997;29;20051;-87
2020/12/08 05:06:49;;;;;;;55.65;22.80;;;;;;;0.08;99.62;100218.94;4738846;30;20413;-87
2020/12/08 05:09:34;;;;;;;48.75;20.30;;;;;;;-0.02;99.53;100215.94;4712036;30;20056;-87
2020/12/08 05:12:20;;;;;;;44.72;19.50;;;;;;;-0.07;99.30;100217.16;4734930;30;20047;-87
2020/12/08 05:15:00;;;;;;;45.95;19.10;;;;;;;-0.15;99.36;100222.81;4748430;30;20132;-87
2020/12/08 05:17:41;;;;;;;42.30;19.35;;;;;;;-0.14;98.86;100215.75;4743810;30;20160;-87
2020/12/08 05:20:20;;;;;;;44.08;18.73;;;;;;;-0.25;99.06;100216.31;4759449;30;20055;-88
2020/12/08 05:23:05;;;;;;;;;;;;;;;-0.33;99.04;100219.38;4755043;30;20410;-87
2020/12/08 05:25:36;;;;;;;41.58;18.83;;;;;;;-0.51;99.09;100221.22;4762287;29;19960;-87
2020/12/08 05:28:41;;;;;;;38.22;18.98;;;;;;;-0.60;99.07;100227.84;4766736;30;20486;-87
2020/12/08 05:31:40;;;;;;;;;;;;;;;;;;;;;
2020/12/08 05:34:44;;;;;;;40.97;20.02;;;;;;;-0.62;99.20;100228.88;4772441;29;20375;-87
2020/12/08 05:37:23;;;;;;;45.65;20.73;;;;;;;-0.69;99.43;100243.31;4756338;29;20055;-87
2020/12/08 05:43:08;;;;;;;54.60;22.48;;;;;;;-0.74;99.33;100238.28;4743170;30;19929;-87
2020/12/08 05:45:54;;;;;;;52.28;23.52;;;;;;;-0.76;99.75;100238.38;4746091;29;20048;-86
2020/12/08 05:48:26;;;;;;;50.08;22.17;;;;;;;-0.78;99.48;100237.59;4733313;30;20437;-87
2020/12/08 05:51:08;;;;;;;50.60;21.45;;;;;;;-0.78;99.40;100240.25;4751852;30;20039;-86
2020/12/08 05:53:39;;;;;;;49.45;20.58;;;;;;;-0.82;99.26;100251.91;4758932;30;20554;-86
2020/12/08 05:56:21;;;;;;;42.00;20.45;;;;;;;-0.87;99.42;100248.63;4752714;29;20055;-86
2020/12/08 05:58:57;;;;;;;56.25;21.55;;;;;;;-0.84;99.13;100260.81;4742690;30;20098;-86
2020/12/08 06:01:45;;;;;;;40.08;19.00;;;;;;;-0.88;98.78;100260.13;4725511;30;20216;-86
2020/12/08 06:04:16;;;;;;;41.42;18.83;;;;;;;-0.96;98.99;100267.59;4758314;30;20187;-86
2020/12/08 06:06:47;;;;;;;44.67;18.52;;;;;;;-0.94;99.09;100260.47;4731887;30;20497;-85
2020/12/08 06:09:25;;;;;;;43.70;18.77;;;;;;;-0.99;99.04;100259.81;4726002;30;20055;-85
2020/12/08 06:11:53;;;;;;;41.45;19.33;;;;;;;-0.97;99.08;100258.81;4761695;30;20052;-85
2020/12/08 06:14:37;;;;;;;44.03;20.70;;;;;;;-1.02;98.94;100252.91;4750712;30;20513;-85
2020/12/08 06:17:05;;;;;;;42.92;21.25;;;;;;;-1.06;98.80;100262.78;4751529;30;20052;-85
2020/12/08 06:19:38;;;;;;;48.80;20.75;;;;;;;-1.07;98.88;100260.22;4748989;30;20051;-85
2020/12/08 06:22:19;;;;;;;38.70;18.20;;;;;;;-1.13;99.04;100263.16;4761312;29;20051;-85
2020/12/08 06:24:56;;;;;;;45.80;20.98;;;;;;;-1.08;98.52;100264.63;4755632;29;20157;-85
2020/12/08 06:27:33;;;;;;;42.50;19.55;;;;;;;-1.08;99.12;100259.34;4743612;30;20070;-87
2020/12/08 06:30:02;;;;;;;47.47;21.27;;;;;;;-1.01;99.20;100264.34;4742465;30;20056;-84
2020/12/08 06:32:34;;;;;;;49.22;22.50;;;;;;;-1.04;99.13;100272.41;4762406;29;20051;-85
2020/12/08 06:35:21;;;;;;;49.03;23.23;;;;;;;-1.10;98.99;100276.22;4746335;30;20459;-85
2020/12/08 06:37:49;;;;;;;42.03;21.88;;;;;;;-1.09;99.36;100286.69;4749618;30;20043;-85
2020/12/08 06:40:25;;;;;;;46.30;21.75;;;;;;;-1.03;99.32;100276.75;4758817;30;20047;-86
2020/12/08 06:42:56;;;;;;;47.00;21.05;;;;;;;-1.04;99.25;100277.69;4766245;30;20097;-85
2020/12/08 06:45:24;;;;;;;45.28;22.45;;;;;;;-1.15;98.79;100272.94;4750686;30;20056;-85
2020/12/08 06:47:58;;;;;;;45.60;22.67;;;;;;;-1.14;99.13;100269.38;4730250;29;20156;-83
2020/12/08 06:50:47;;;;;;;44.40;23.48;;;;;;;-1.17;99.09;100273.00;4744337;29;20128;-83
2020/12/08 06:53:18;;;;;;;47.28;22.42;;;;;;;-1.17;99.04;100270.38;4750907;29;20123;-83
2020/12/08 06:56:14;;;;;;;49.25;24.67;;;;;;;-1.10;99.24;100281.50;4725141;30;20462;-83
2020/12/08 06:59:04;;;;;;;59.13;24.55;;;;;;;-1.16;99.18;100282.66;4760619;30;20043;-83
2020/12/08 07:01:49;;;;;;;48.30;24.33;;;;;;;-1.12;99.40;100283.34;4745349;29;20824;-84
2020/12/08 07:04:26;;;;;;;49.85;24.27;;;;;;;-1.15;99.08;100287.00;4753331;30;20296;-85
2020/12/08 07:07:06;;;;;;;52.00;25.02;;;;;;;-1.13;99.01;100286.94;4741537;30;20056;-84
2020/12/08 07:09:35;;;;;;;;;;;;;;;-1.16;99.36;100292.34;4740975;30;20055;-84
2020/12/08 07:12:06;;;;;;;55.40;27.73;;;;;;;-1.13;99.21;100297.50;4760820;30;19921;-84
2020/12/08 07:15:00;;;;;;;48.20;24.17;;;;;;;-1.07;99.70;100300.66;4739426;30;20055;-84
2020/12/08 07:17:32;;;;;;;47.45;26.80;;;;;;;-0.98;99.66;100302.00;4743180;30;20039;-85
2020/12/08 07:20:04;;;;;;;57.85;25.48;;;;;;;-0.77;99.67;100305.34;4744470;30;20051;-84
2020/12/08 07:22:44;;;;;;;61.30;28.48;;;;;;;-0.62;99.91;100305.50;4703829;30;20143;-84
2020/12/08 07:25:21;;;;;;;57.90;28.50;;;;;;;-0.57;99.69;100316.72;4708823;30;20063;-84
2020/12/08 07:27:58;;;;;;;49.47;26.95;;;;;;;-0.56;99.50;100318.41;4762636;30;20040;-84
2020/12/08 07:30:55;;;;;;;57.08;28.27;;;;;;;-0.44;99.69;100328.38;4738980;30;20056;-84
2020/12/08 07:33:47;;;;;;;66.10;29.13;;;;;;;-0.31;99.69;100323.31;4769616;30;20704;-84
2020/12/08 07:36:38;;;;;;;56.92;29.02;;;;;;;-0.28;99.77;100323.16;4725550;30;20043;-84
2020/12/08 07:39:24;;;;;;;58.38;28.35;;;;;;;-0.26;99.62;100331.00;4749155;30;20061;-86
2020/12/08 07:42:01;;;;;;;57.20;28.33;;;;;;;-0.29;99.60;100341.75;4740437;30;20196;-84
2020/12/08 07:44:33;;;;;;;63.35;27.67;;;;;;;-0.26;99.77;100352.16;4735951;30;20054;-84
2020/12/08 07:47:11;;;;;;;64.05;28.45;;;;;;;-0.17;99.88;100341.09;4755073;30;20484;-85
2020/12/08 07:49:59;;;;;;;58.45;29.65;;;;;;;-0.07;99.73;100347.59;4740906;30;20098;-85
2020/12/08 07:52:43;;;;;;;58.22;28.80;;;;;;;-0.10;99.87;100344.28;4759942;29;20080;-85
2020/12/08 07:55:14;;;;;;;55.83;27.90;;;;;;;-0.07;99.97;100341.47;4748828;29;20083;-84
2020/12/08 07:57:40;;;;;;;66.82;30.58;;;;;;;-0.04;99.71;100336.84;4742454;29;20044;-84
2020/12/08 08:00:12;;;;;;;59.42;28.13;;;;;;;-0.04;99.88;100344.78;4747511;30;20519;-85
2020/12/08 08:02:57;;;;;;;64.70;31.55;;;;;;;-0.04;99.75;100341.31;4719672;30;20410;-84
2020/12/08 08:05:45;;;;;;;53.97;28.98;;;;;;;-0.02;99.53;100342.91;4737642;30;20059;-84
2020/12/08 08:08:32;;;;;;;58.45;28.42;;;;;;;0.02;99.86;100342.78;4729942;30;20055;-84
2020/12/08 08:10:58;;;;;;;59.08;29.33;;;;;;;0.09;99.61;100347.66;4743836;30;20104;-84
2020/12/08 08:13:34;;;;;;;57.72;29.83;;;;;;;0.13;100.00;100341.28;4754249;29;20549;-84
2020/12/08 08:16:34;;;;;;;;;;;;;;;;;;;;;
2020/12/08 08:19:17;;;;;;;57.97;29.92;;;;;;;0.24;99.89;100348.63;4756694;30;20052;-84
2020/12/08 08:21:51;;;;;;;55.33;28.33;;;;;;;0.25;99.90;100345.03;4732713;30;20051;-85
2020/12/08 08:24:26;;;;;;;50.30;26.98;;;;;;;0.27;100.00;100345.81;4741775;30;20061;-84
2020/12/08 08:27:09;;;;;;;;;;;;;;;;;;;;;
2020/12/08 08:29:40;;;;;;;57.75;28.60;;;;;;;0.33;99.74;100350.75;4734436;29;20051;-84
2020/12/08 08:32:12;;;;;;;55.33;28.73;;;;;;;0.39;100.00;100359.31;4743332;30;20070;-84
2020/12/08 08:34:46;;;;;;;53.55;27.65;;;;;;;0.42;99.94;100348.56;4740494;30;20067;-84
2020/12/08 08:37:22;;;;;;;60.63;28.17;;;;;;;0.43;99.60;100350.28;4769262;29;20566;-85
2020/12/08 08:39:56;;;;;;;55.92;28.40;;;;;;;0.43;100.00;100352.94;4752276;30;20051;-85
2020/12/08 08:42:25;;;;;;;59.67;29.58;;;;;;;0.53;99.50;100354.13;4732316;30;20416;-84
2020/12/08 08:45:02;;;;;;;53.25;27.98;;;;;;;0.58;99.62;100354.72;4740078;30;20122;-84
2020/12/08 08:47:40;;;;;;;58.63;29.90;;;;;;;0.55;99.92;100359.34;4751186;30;20051;-84
2020/12/08 08:50:31;;;;;;;46.80;25.88;;;;;;;0.60;99.52;100357.28;4734567;30;20395;-84
2020/12/08 08:53:11;;;;;;;48.95;27.27;;;;;;;0.60;99.25;100358.13;4760437;30;20043;-84
2020/12/08 08:55:38;;;;;;;51.50;26.70;;;;;;;0.71;99.96;100357.56;4757807;29;20158;-84
2020/12/08 08:58:24;;;;;;;60.20;29.00;;;;;;;0.66;99.83;100368.41;4754380;30;20047;-85
2020/12/08 09:00:58;;;;;;;48.92;26.80;;;;;;;0.70;99.15;100363.78;4751149;30;20105;-85
2020/12/08 09:03:53;;;;;;;53.55;27.98;;;;;;;0.69;99.71;100368.25;4731752;29;20044;-85
2020/12/08 09:06:25;;;;;;;56.08;28.40;;;;;;;0.81;99.74;100371.13;4768160;29;20524;-84
2020/12/08 09:09:08;;;;;;;54.78;28.58;;;;;;;0.77;99.18;100378.41;4761210;30;20043;-85
2020/12/08 09:12:08;;;;;;;60.15;27.95;;;;;;;0.76;99.59;100386.44;4714892;30;20059;-85
2020/12/08 09:14:43;;;;;;;62.47;29.15;;;;;;;0.80;99.59;100377.38;4668587;30;20108;-85
2020/12/08 09:17:38;;;;;;;55.10;28.88;;;;;;;0.85;99.84;100375.31;4744789;30;20056;-85
2020/12/08 09:23:39;;;;;;;58.72;27.80;;;;;;;0.93;98.94;100373.09;4728906;30;20047;-86
2020/12/08 09:26:24;;;;;;;51.92;27.40;;;;;;;0.97;98.95;100382.59;4748285;30;20521;-86
2020/12/08 09:29:00;;;;;;;51.03;26.88;;;;;;;1.00;99.13;100379.75;4732127;30;20108;-85
2020/12/08 09:31:31;;;;;;;47.78;24.90;;;;;;;1.03;99.49;100389.31;4745900;30;20141;-85
2020/12/08 09:34:30;;;;;;;50.03;27.40;;;;;;;1.11;99.03;100388.91;4759660;30;20078;-86
2020/12/08 09:37:07;;;;;;;49.88;26.45;;;;;;;1.23;99.23;100389.03;4745111;30;20051;-85
2020/12/08 09:39:43;;;;;;;47.78;24.95;;;;;;;1.25;99.18;100386.28;4730354;30;20051;-85
2020/12/08 09:42:44;;;;;;;44.40;24.80;;;;;;;1.30;98.77;100389.56;4729150;30;20467;-85
2020/12/08 09:45:19;;;;;;;45.95;24.92;;;;;;;1.34;98.63;100387.56;4732783;30;20050;-85
2020/12/08 09:48:31;;;;;;;42.25;24.08;;;;;;;1.38;98.98;100375.84;4746265;29;20047;-85
2020/12/08 09:51:08;;;;;;;47.40;25.20;;;;;;;1.43;98.85;100386.19;4740275;30;20095;-85
2020/12/08 09:53:46;;;;;;;44.70;24.30;;;;;;;1.56;98.39;100379.22;4750038;30;20082;-85
2020/12/08 09:56:23;;;;;;;42.47;25.05;;;;;;;1.53;98.48;100379.41;4766621;30;20053;-85
2020/12/08 09:59:03;;;;;;;46.33;24.20;;;;;;;1.58;98.00;100385.31;4753718;30;20051;-86
2020/12/08 10:02:11;;;;;;;46.35;26.10;;;;;;;1.63;97.73;100383.22;4748954;30;20051;-85
2020/12/08 10:04:51;;;;;;;47.55;25.30;;;;;;;1.75;97.57;100379.84;4737604;30;20063;-85
2020/12/08 10:07:33;;;;;;;47.85;24.92;;;;;;;1.68;97.48;100383.81;4744844;30;20082;-85
2020/12/08 10:10:18;;;;;;;41.22;23.88;;;;;;;1.79;98.04;100375.19;4754282;29;20564;-85
2020/12/08 10:12:49;;;;;;;41.97;24.05;;;;;;;1.84;97.65;100366.97;4730672;30;20139;-86
2020/12/08 10:15:20;;;;;;;39.22;22.27;;;;;;;1.95;97.76;100375.16;4751783;29;20059;-85
2020/12/08 10:17:55;;;;;;;46.30;24.95;;;;;;;2.07;97.15;100368.22;4764426;30;20046;-85
2020/12/08 10:20:29;;;;;;;40.47;23.60;;;;;;;1.97;97.41;100375.88;4723304;30;20071;-85
2020/12/08 10:26:19;;;;;;;42.67;22.88;;;;;;;1.95;97.25;100379.59;4739916;30;20052;-85
2020/12/08 10:28:58;;;;;;;41.78;23.73;;;;;;;2.08;97.08;100376.09;4749157;29;20043;-85
2020/12/08 10:31:32;;;;;;;40.80;23.20;;;;;;;1.95;97.09;100383.09;4740054;29;20539;-85
2020/12/08 10:34:08;;;;;;;38.10;23.02;;;;;;;1.96;97.22;100379.50;4754824;29;20052;-85
2020/12/08 10:36:55;;;;;;;38.70;22.85;;;;;;;1.96;97.38;100379.50;4724057;29;20075;-85
2020/12/08 10:39:32;;;;;;;38.25;22.17;;;;;;;1.94;97.03;100384.03;4755894;30;20048;-85
2020/12/08 10:45:17;;;;;;;40.15;22.60;;;;;;;1.95;97.34;100385.75;4668255;30;20107;-85
2020/12/08 10:51:04;;;;;;;39.58;23.08;;;;;;;2.00;96.49;100374.84;4734465;30;20129;-85
2020/12/08 10:53:45;;;;;;;41.97;22.08;;;;;;;2.03;96.48;100372.88;4717094;30;20421;-85
2020/12/08 10:56:42;;;;;;;37.97;22.35;;;;;;;2.03;96.71;100378.19;4737415;30;20056;-85
2020/12/08 10:59:41;;;;;;;36.88;22.60;;;;;;;2.10;96.76;100383.97;4725690;30;20049;-85
2020/12/08 15:40:47;;;;;;;46.22;25.52;;;;;;;2.87;96.26;100479.31;3185801;27;20055;-84
2020/12/08 15:43:37;;;;;;;43.95;24.45;;;;;;;2.87;96.28;100485.50;4818123;29;20034;-84
2020/12/08 15:46:46;;;;;;;43.75;24.23;;;;;;;2.84;96.76;100479.50;4790835;29;20067;-85
2020/12/08 15:49:32;;;;;;;46.30;24.92;;;;;;;2.77;96.50;100487.03;4725068;30;20059;-85
2020/12/08 15:52:21;;;;;;;46.70;24.98;;;;;;;2.80;96.46;100486.84;4720383;30;20048;-84
2020/12/08 15:58:01;;;;;;;51.70;26.63;;;;;;;2.80;96.85;100494.81;4615881;30;20117;-85
2020/12/08 16:00:41;;;;;;;44.40;25.42;;;;;;;2.68;96.77;100509.72;4689512;30;20040;-85
2020/12/08 16:03:13;;;;;;;;;;;;;;;2.61;96.82;100503.06;4690857;30;20549;-84
2020/12/08 16:06:05;;;;;;;42.95;24.83;;;;;;;2.65;97.00;100512.56;4711065;30;22849;-84
2020/12/08 16:08:41;;;;;;;44.75;25.85;;;;;;;2.72;96.97;100518.34;4823248;29;20042;-85
2020/12/08 16:11:19;;;;;;;47.20;26.70;;;;;;;2.73;96.61;100512.94;4838379;29;20033;-85
2020/12/08 16:14:23;;;;;;;50.33;27.00;;;;;;;2.67;97.38;100523.94;4809099;29;20058;-84
2020/12/08 16:16:54;;;;;;;45.53;26.40;;;;;;;2.66;97.63;100530.19;4829453;29;20598;-84
2020/12/08 16:19:23;;;;;;;49.60;25.85;;;;;;;2.76;96.84;100530.50;4828346;29;20637;-84
2020/12/08 16:22:18;;;;;;;49.20;26.45;;;;;;;2.86;96.43;100530.78;4801181;29;20560;-84
2020/12/08 16:25:03;;;;;;;50.00;27.30;;;;;;;2.82;96.44;100524.78;4829967;29;20381;-84
2020/12/08 16:27:33;;;;;;;44.85;26.27;;;;;;;2.82;96.44;100530.13;4794930;29;20038;-85
2020/12/08 16:30:28;;;;;;;49.75;26.52;;;;;;;2.76;96.89;100535.81;4806255;29;20105;-84
2020/12/08 16:36:54;;;;;;;50.78;26.10;;;;;;;2.74;97.24;100546.53;4825051;29;20107;-85
2020/12/08 16:42:38;;;;;;;;;;;;;;;;;;;;;
2020/12/08 16:45:12;;;;;;;54.05;27.70;;;;;;;2.83;96.91;100544.25;4823738;29;20041;-85
2020/12/08 16:48:14;;;;;;;51.58;28.50;;;;;;;2.74;97.08;100543.88;4829861;29;20056;-85
2020/12/08 16:50:45;;;;;;;58.40;29.67;;;;;;;2.59;97.69;100547.44;4747839;29;20046;-85
2020/12/08 16:53:43;;;;;;;54.42;29.40;;;;;;;2.65;98.02;100549.75;4828677;29;20037;-85
2020/12/08 16:56:24;;;;;;;58.33;30.95;;;;;;;2.70;97.66;100552.97;4807980;29;20073;-84
2020/12/08 16:59:05;;;;;;;62.20;31.08;;;;;;;2.64;97.69;100548.03;4797334;29;20054;-85
2020/12/08 17:02:03;;;;;;;57.00;29.85;;;;;;;2.67;98.04;100555.81;4782134;29;20057;-85
2020/12/08 17:05:00;;;;;;;51.63;29.13;;;;;;;2.78;97.37;100556.03;4799558;29;20065;-85
2020/12/08 17:08:04;;;;;;;53.00;28.20;;;;;;;2.85;97.43;100567.13;4808941;29;20053;-85
2020/12/08 17:10:57;;;;;;;51.22;26.23;;;;;;;2.83;97.01;100563.72;4827520;29;20107;-85
2020/12/08 17:17:47;;;;;;;56.25;27.55;;;;;;;2.91;97.11;100571.22;4811457;29;20133;-86
2020/12/08 17:20:32;;;;;;;48.72;26.88;;;;;;;2.80;97.19;100570.06;4802443;29;20165;-85
2020/12/08 17:23:26;;;;;;;48.47;25.42;;;;;;;2.83;97.53;100573.47;4829258;29;20190;-85
2020/12/08 17:26:35;;;;;;;;;;;;;;;;;;;;;
2020/12/08 17:29:10;;;;;;;56.97;28.27;;;;;;;2.74;97.10;100578.44;4805000;29;20046;-85
2020/12/08 17:31:55;;;;;;;51.55;27.85;;;;;;;2.61;97.51;100580.13;4802467;29;20369;-85